sensor_id;sensor_type;location;lat;lon;timestamp;temperature;humidity
14934;DHT22;7560;51.364;12.384;2022-10-19T00:02:51;10.80;99.90
14934;DHT22;7560;51.364;12.384;2022-10-19T00:07:53;10.70;99.90
14934;DHT22;7560;51.364;12.384;2022-10-19T00:12:56;10.70;99.90
14934;DHT22;7560;51.364;12.384;2022-10-19T00:17:57;10.70;99.90
14934;DHT22;7560;51.364;12.384;2022-10-19T00:22:59;10.60;99.90
14934;DHT22;7560;51.364;12.384;2022-10-19T00:28:01;10.60;99.90
14934;DHT22;7560;51.364;12.384;2022-10-19T00:33:02;10.50;99.90
14934;DHT22;7560;51.364;12.384;2022-10-19T00:38:05;10.50;99.90
14934;DHT22;7560;51.364;12.384;2022-10-19T00:43:22;10.50;99.90
14934;DHT22;7560;51.364;12.384;2022-10-19T00:48:29;10.40;99.90
14934;DHT22;7560;51.364;12.384;2022-10-19T00:53:32;10.40;99.90
14934;DHT22;7560;51.364;12.384;2022-10-19T00:58:34;10.40;99.90
14934;DHT22;7560;51.364;12.384;2022-10-19T01:03:37;10.40;99.90
14934;DHT22;7560;51.364;12.384;2022-10-19T01:08:38;10.30;99.90
14934;DHT22;7560;51.364;12.384;2022-10-19T01:24:34;10.40;99.90
14934;DHT22;7560;51.364;12.384;2022-10-19T01:30:13;10.50;99.90
14934;DHT22;7560;51.364;12.384;2022-10-19T01:35:44;10.60;99.90
14934;DHT22;7560;51.364;12.384;2022-10-19T01:51:19;10.70;99.90
14934;DHT22;7560;51.364;12.384;2022-10-19T01:56:26;10.80;99.90
14934;DHT22;7560;51.364;12.384;2022-10-19T02:01:30;10.90;99.90
14934;DHT22;7560;51.364;12.384;2022-10-19T02:06:34;11.00;99.90
14934;DHT22;7560;51.364;12.384;2022-10-19T02:11:36;11.00;99.90
14934;DHT22;7560;51.364;12.384;2022-10-19T02:16:47;11.00;99.90
14934;DHT22;7560;51.364;12.384;2022-10-19T02:21:50;11.10;99.90
14934;DHT22;7560;51.364;12.384;2022-10-19T02:26:53;11.00;99.90
14934;DHT22;7560;51.364;12.384;2022-10-19T02:31:55;11.00;99.90
14934;DHT22;7560;51.364;12.384;2022-10-19T02:36:57;10.90;99.90
14934;DHT22;7560;51.364;12.384;2022-10-19T02:42:11;10.70;99.90
14934;DHT22;7560;51.364;12.384;2022-10-19T02:47:30;10.60;99.90
14934;DHT22;7560;51.364;12.384;2022-10-19T02:52:40;10.40;99.90
14934;DHT22;7560;51.364;12.384;2022-10-19T02:57:42;10.40;99.90
14934;DHT22;7560;51.364;12.384;2022-10-19T03:02:44;10.30;99.90
14934;DHT22;7560;51.364;12.384;2022-10-19T03:07:45;10.30;99.90
14934;DHT22;7560;51.364;12.384;2022-10-19T03:12:47;10.30;99.90
14934;DHT22;7560;51.364;12.384;2022-10-19T03:17:51;10.30;99.90
14934;DHT22;7560;51.364;12.384;2022-10-19T03:22:53;10.30;99.90
14934;DHT22;7560;51.364;12.384;2022-10-19T03:27:55;10.20;99.90
14934;DHT22;7560;51.364;12.384;2022-10-19T03:32:57;10.20;99.90
14934;DHT22;7560;51.364;12.384;2022-10-19T03:37:58;10.10;99.90
14934;DHT22;7560;51.364;12.384;2022-10-19T03:43:00;10.10;99.90
14934;DHT22;7560;51.364;12.384;2022-10-19T03:48:02;10.10;99.90
14934;DHT22;7560;51.364;12.384;2022-10-19T03:53:04;10.00;99.90
14934;DHT22;7560;51.364;12.384;2022-10-19T03:58:05;9.90;99.90
14934;DHT22;7560;51.364;12.384;2022-10-19T04:03:07;9.90;99.90
14934;DHT22;7560;51.364;12.384;2022-10-19T04:08:09;9.80;99.90
14934;DHT22;7560;51.364;12.384;2022-10-19T04:13:10;9.80;99.90
14934;DHT22;7560;51.364;12.384;2022-10-19T04:18:12;9.70;99.90
14934;DHT22;7560;51.364;12.384;2022-10-19T04:23:14;9.70;99.90
14934;DHT22;7560;51.364;12.384;2022-10-19T04:28:18;9.70;99.90
14934;DHT22;7560;51.364;12.384;2022-10-19T04:33:20;9.70;99.90
14934;DHT22;7560;51.364;12.384;2022-10-19T04:38:22;9.60;99.90
14934;DHT22;7560;51.364;12.384;2022-10-19T04:43:23;9.60;99.90
14934;DHT22;7560;51.364;12.384;2022-10-19T04:48:25;9.60;99.90
14934;DHT22;7560;51.364;12.384;2022-10-19T04:53:27;9.60;99.90
14934;DHT22;7560;51.364;12.384;2022-10-19T04:58:29;9.60;99.90
14934;DHT22;7560;51.364;12.384;2022-10-19T05:03:30;9.50;99.90
14934;DHT22;7560;51.364;12.384;2022-10-19T05:08:33;9.50;99.90
14934;DHT22;7560;51.364;12.384;2022-10-19T05:13:35;9.50;99.90
14934;DHT22;7560;51.364;12.384;2022-10-19T05:18:37;9.50;99.90
14934;DHT22;7560;51.364;12.384;2022-10-19T05:23:40;9.60;99.90
14934;DHT22;7560;51.364;12.384;2022-10-19T05:28:46;9.80;99.90
14934;DHT22;7560;51.364;12.384;2022-10-19T05:33:48;9.90;99.90
14934;DHT22;7560;51.364;12.384;2022-10-19T05:38:50;10.10;99.90
14934;DHT22;7560;51.364;12.384;2022-10-19T05:43:55;10.10;99.90
14934;DHT22;7560;51.364;12.384;2022-10-19T05:48:58;10.20;99.90
14934;DHT22;7560;51.364;12.384;2022-10-19T05:54:00;10.20;99.90
14934;DHT22;7560;51.364;12.384;2022-10-19T05:59:05;10.20;99.90
14934;DHT22;7560;51.364;12.384;2022-10-19T06:04:07;10.30;99.90
14934;DHT22;7560;51.364;12.384;2022-10-19T06:09:09;10.40;99.90
14934;DHT22;7560;51.364;12.384;2022-10-19T06:14:13;10.40;99.90
14934;DHT22;7560;51.364;12.384;2022-10-19T06:19:15;10.30;99.90
14934;DHT22;7560;51.364;12.384;2022-10-19T06:24:17;10.40;99.90
14934;DHT22;7560;51.364;12.384;2022-10-19T06:29:19;10.60;99.90
14934;DHT22;7560;51.364;12.384;2022-10-19T06:34:20;10.70;99.90
14934;DHT22;7560;51.364;12.384;2022-10-19T06:39:22;10.80;99.90
14934;DHT22;7560;51.364;12.384;2022-10-19T06:44:24;10.90;99.90
14934;DHT22;7560;51.364;12.384;2022-10-19T06:49:25;10.90;99.90
14934;DHT22;7560;51.364;12.384;2022-10-19T06:54:28;11.00;99.90
14934;DHT22;7560;51.364;12.384;2022-10-19T06:59:29;11.10;99.90
14934;DHT22;7560;51.364;12.384;2022-10-19T07:04:31;11.10;99.90
14934;DHT22;7560;51.364;12.384;2022-10-19T07:09:33;11.30;99.90
14934;DHT22;7560;51.364;12.384;2022-10-19T07:14:36;11.40;99.90
14934;DHT22;7560;51.364;12.384;2022-10-19T07:19:39;11.40;99.90
14934;DHT22;7560;51.364;12.384;2022-10-19T07:24:41;11.60;99.90
14934;DHT22;7560;51.364;12.384;2022-10-19T07:29:43;11.70;99.90
14934;DHT22;7560;51.364;12.384;2022-10-19T07:34:45;11.80;99.90
14934;DHT22;7560;51.364;12.384;2022-10-19T07:39:46;11.60;99.90
14934;DHT22;7560;51.364;12.384;2022-10-19T07:44:48;11.60;99.90
14934;DHT22;7560;51.364;12.384;2022-10-19T07:49:50;11.60;99.90
14934;DHT22;7560;51.364;12.384;2022-10-19T07:54:51;11.90;99.90
14934;DHT22;7560;51.364;12.384;2022-10-19T07:59:53;11.90;99.90
14934;DHT22;7560;51.364;12.384;2022-10-19T08:04:55;12.20;99.90
14934;DHT22;7560;51.364;12.384;2022-10-19T08:10:04;12.40;99.90
14934;DHT22;7560;51.364;12.384;2022-10-19T08:15:06;12.50;99.90
14934;DHT22;7560;51.364;12.384;2022-10-19T08:20:08;12.60;99.90
14934;DHT22;7560;51.364;12.384;2022-10-19T08:25:10;12.70;99.90
14934;DHT22;7560;51.364;12.384;2022-10-19T08:30:12;12.80;99.90
14934;DHT22;7560;51.364;12.384;2022-10-19T08:35:14;13.00;99.90
14934;DHT22;7560;51.364;12.384;2022-10-19T08:40:24;12.80;99.90
14934;DHT22;7560;51.364;12.384;2022-10-19T08:50:39;12.90;99.90
14934;DHT22;7560;51.364;12.384;2022-10-19T08:56:08;12.90;99.90
14934;DHT22;7560;51.364;12.384;2022-10-19T09:12:04;13.50;99.90
14934;DHT22;7560;51.364;12.384;2022-10-19T09:17:13;13.00;99.90
14934;DHT22;7560;51.364;12.384;2022-10-19T09:22:20;13.40;99.90
14934;DHT22;7560;51.364;12.384;2022-10-19T09:27:25;13.30;99.90
14934;DHT22;7560;51.364;12.384;2022-10-19T09:32:36;13.90;99.90
14934;DHT22;7560;51.364;12.384;2022-10-19T09:37:43;13.80;99.90
14934;DHT22;7560;51.364;12.384;2022-10-19T09:42:45;13.20;99.90
14934;DHT22;7560;51.364;12.384;2022-10-19T09:47:47;13.40;99.90
14934;DHT22;7560;51.364;12.384;2022-10-19T09:52:51;13.40;99.90
14934;DHT22;7560;51.364;12.384;2022-10-19T09:58:16;13.60;99.90
14934;DHT22;7560;51.364;12.384;2022-10-19T10:08:26;13.30;99.90
14934;DHT22;7560;51.364;12.384;2022-10-19T10:13:28;13.40;99.90
14934;DHT22;7560;51.364;12.384;2022-10-19T10:18:30;13.40;99.90
14934;DHT22;7560;51.364;12.384;2022-10-19T10:23:33;13.20;99.90
14934;DHT22;7560;51.364;12.384;2022-10-19T10:28:46;13.30;99.90
14934;DHT22;7560;51.364;12.384;2022-10-19T10:34:12;13.60;99.90
14934;DHT22;7560;51.364;12.384;2022-10-19T10:39:41;13.20;99.90
14934;DHT22;7560;51.364;12.384;2022-10-19T10:44:47;13.20;99.90
14934;DHT22;7560;51.364;12.384;2022-10-19T10:49:59;13.30;99.90
14934;DHT22;7560;51.364;12.384;2022-10-19T11:00:18;13.90;99.90
14934;DHT22;7560;51.364;12.384;2022-10-19T11:05:21;13.80;99.90
14934;DHT22;7560;51.364;12.384;2022-10-19T11:10:48;13.80;99.90
14934;DHT22;7560;51.364;12.384;2022-10-19T11:36:50;13.80;99.90
14934;DHT22;7560;51.364;12.384;2022-10-19T11:42:25;13.80;99.90
14934;DHT22;7560;51.364;12.384;2022-10-19T11:53:21;14.50;99.90
14934;DHT22;7560;51.364;12.384;2022-10-19T12:09:10;14.20;99.90
14934;DHT22;7560;51.364;12.384;2022-10-19T12:14:22;14.00;99.90
14934;DHT22;7560;51.364;12.384;2022-10-19T12:19:35;13.70;99.90
14934;DHT22;7560;51.364;12.384;2022-10-19T12:24:39;13.70;99.90
14934;DHT22;7560;51.364;12.384;2022-10-19T12:29:44;13.50;99.90
14934;DHT22;7560;51.364;12.384;2022-10-19T12:35:06;13.40;99.90
14934;DHT22;7560;51.364;12.384;2022-10-19T12:40:37;13.50;99.90
14934;DHT22;7560;51.364;12.384;2022-10-19T12:45:51;13.50;99.90
14934;DHT22;7560;51.364;12.384;2022-10-19T12:51:13;13.50;99.90
14934;DHT22;7560;51.364;12.384;2022-10-19T12:56:22;13.60;99.90
14934;DHT22;7560;51.364;12.384;2022-10-19T13:06:36;13.80;99.90
14934;DHT22;7560;51.364;12.384;2022-10-19T13:22:35;13.80;99.90
14934;DHT22;7560;51.364;12.384;2022-10-19T13:27:38;13.50;99.90
14934;DHT22;7560;51.364;12.384;2022-10-19T13:32:44;13.60;99.90
14934;DHT22;7560;51.364;12.384;2022-10-19T13:38:01;13.80;99.90
14934;DHT22;7560;51.364;12.384;2022-10-19T13:43:17;14.00;99.90
14934;DHT22;7560;51.364;12.384;2022-10-19T13:48:32;14.10;99.90
14934;DHT22;7560;51.364;12.384;2022-10-19T13:53:44;13.70;99.90
14934;DHT22;7560;51.364;12.384;2022-10-19T14:04:58;13.40;99.90
14934;DHT22;7560;51.364;12.384;2022-10-19T14:10:16;13.40;99.90
14934;DHT22;7560;51.364;12.384;2022-10-19T14:15:33;13.60;99.90
14934;DHT22;7560;51.364;12.384;2022-10-19T14:20:37;13.60;99.90
14934;DHT22;7560;51.364;12.384;2022-10-19T14:25:39;13.50;99.90
14934;DHT22;7560;51.364;12.384;2022-10-19T14:30:41;13.50;99.90
14934;DHT22;7560;51.364;12.384;2022-10-19T14:35:49;13.30;99.90
14934;DHT22;7560;51.364;12.384;2022-10-19T14:40:51;13.30;99.90
14934;DHT22;7560;51.364;12.384;2022-10-19T14:51:14;12.90;99.90
14934;DHT22;7560;51.364;12.384;2022-10-19T14:56:25;13.00;99.90
14934;DHT22;7560;51.364;12.384;2022-10-19T15:01:29;13.30;99.90
14934;DHT22;7560;51.364;12.384;2022-10-19T15:06:32;13.30;99.90
14934;DHT22;7560;51.364;12.384;2022-10-19T15:11:38;13.30;99.90
14934;DHT22;7560;51.364;12.384;2022-10-19T15:16:43;13.20;99.90
14934;DHT22;7560;51.364;12.384;2022-10-19T15:21:46;13.10;99.90
14934;DHT22;7560;51.364;12.384;2022-10-19T15:26:50;13.00;99.90
14934;DHT22;7560;51.364;12.384;2022-10-19T15:32:15;13.10;99.90
14934;DHT22;7560;51.364;12.384;2022-10-19T15:37:21;13.20;99.90
14934;DHT22;7560;51.364;12.384;2022-10-19T15:47:34;13.00;99.90
14934;DHT22;7560;51.364;12.384;2022-10-19T15:52:36;12.70;99.90
14934;DHT22;7560;51.364;12.384;2022-10-19T15:57:38;12.80;99.90
14934;DHT22;7560;51.364;12.384;2022-10-19T16:02:40;12.80;99.90
14934;DHT22;7560;51.364;12.384;2022-10-19T16:07:42;12.80;99.90
14934;DHT22;7560;51.364;12.384;2022-10-19T16:12:44;12.70;99.90
14934;DHT22;7560;51.364;12.384;2022-10-19T16:17:50;12.60;99.90
14934;DHT22;7560;51.364;12.384;2022-10-19T16:22:53;12.60;99.90
14934;DHT22;7560;51.364;12.384;2022-10-19T16:27:54;12.60;99.90
14934;DHT22;7560;51.364;12.384;2022-10-19T16:32:56;12.60;99.90
14934;DHT22;7560;51.364;12.384;2022-10-19T16:37:58;12.50;99.90
14934;DHT22;7560;51.364;12.384;2022-10-19T16:42:59;12.60;99.90
14934;DHT22;7560;51.364;12.384;2022-10-19T16:48:01;12.50;99.90
14934;DHT22;7560;51.364;12.384;2022-10-19T16:53:07;12.40;99.90
14934;DHT22;7560;51.364;12.384;2022-10-19T16:58:11;12.20;99.90
14934;DHT22;7560;51.364;12.384;2022-10-19T17:03:13;11.90;99.90
14934;DHT22;7560;51.364;12.384;2022-10-19T17:08:15;11.60;99.90
14934;DHT22;7560;51.364;12.384;2022-10-19T17:13:16;11.30;99.90
14934;DHT22;7560;51.364;12.384;2022-10-19T17:18:18;11.10;99.90
14934;DHT22;7560;51.364;12.384;2022-10-19T17:23:20;10.90;99.90
14934;DHT22;7560;51.364;12.384;2022-10-19T17:28:21;10.80;99.90
14934;DHT22;7560;51.364;12.384;2022-10-19T17:33:28;10.60;99.90
14934;DHT22;7560;51.364;12.384;2022-10-19T17:38:29;10.50;99.90
14934;DHT22;7560;51.364;12.384;2022-10-19T17:43:31;10.40;99.90
14934;DHT22;7560;51.364;12.384;2022-10-19T17:48:34;10.30;99.90
14934;DHT22;7560;51.364;12.384;2022-10-19T17:53:36;10.20;99.90
14934;DHT22;7560;51.364;12.384;2022-10-19T17:58:38;10.10;99.90
14934;DHT22;7560;51.364;12.384;2022-10-19T18:03:40;10.00;99.90
14934;DHT22;7560;51.364;12.384;2022-10-19T18:08:44;9.90;99.90
14934;DHT22;7560;51.364;12.384;2022-10-19T18:13:48;9.80;99.90
14934;DHT22;7560;51.364;12.384;2022-10-19T18:18:54;9.80;99.90
14934;DHT22;7560;51.364;12.384;2022-10-19T18:23:58;9.60;99.90
14934;DHT22;7560;51.364;12.384;2022-10-19T18:29:09;9.50;99.90
14934;DHT22;7560;51.364;12.384;2022-10-19T18:34:13;9.40;99.90
14934;DHT22;7560;51.364;12.384;2022-10-19T18:39:16;9.40;99.90
14934;DHT22;7560;51.364;12.384;2022-10-19T18:44:18;9.30;99.90
14934;DHT22;7560;51.364;12.384;2022-10-19T18:49:27;9.20;99.90
14934;DHT22;7560;51.364;12.384;2022-10-19T18:54:29;9.10;99.90
14934;DHT22;7560;51.364;12.384;2022-10-19T18:59:31;9.00;99.90
14934;DHT22;7560;51.364;12.384;2022-10-19T19:04:32;8.90;99.90
14934;DHT22;7560;51.364;12.384;2022-10-19T19:09:34;8.80;99.90
14934;DHT22;7560;51.364;12.384;2022-10-19T19:14:38;8.80;99.90
14934;DHT22;7560;51.364;12.384;2022-10-19T19:19:42;8.70;99.90
14934;DHT22;7560;51.364;12.384;2022-10-19T19:24:44;8.60;99.90
14934;DHT22;7560;51.364;12.384;2022-10-19T19:29:45;8.50;99.90
14934;DHT22;7560;51.364;12.384;2022-10-19T19:34:47;8.50;99.90
14934;DHT22;7560;51.364;12.384;2022-10-19T19:39:55;8.40;99.90
14934;DHT22;7560;51.364;12.384;2022-10-19T19:44:56;8.40;99.90
14934;DHT22;7560;51.364;12.384;2022-10-19T19:49:58;8.40;99.90
14934;DHT22;7560;51.364;12.384;2022-10-19T19:55:00;8.30;99.90
14934;DHT22;7560;51.364;12.384;2022-10-19T20:00:07;8.30;99.90
14934;DHT22;7560;51.364;12.384;2022-10-19T20:05:09;8.20;99.90
14934;DHT22;7560;51.364;12.384;2022-10-19T20:10:11;8.20;99.90
14934;DHT22;7560;51.364;12.384;2022-10-19T20:15:17;8.20;99.90
14934;DHT22;7560;51.364;12.384;2022-10-19T20:20:19;8.10;99.90
14934;DHT22;7560;51.364;12.384;2022-10-19T20:25:21;8.00;99.90
14934;DHT22;7560;51.364;12.384;2022-10-19T20:30:23;7.90;99.90
14934;DHT22;7560;51.364;12.384;2022-10-19T20:35:25;7.90;99.90
14934;DHT22;7560;51.364;12.384;2022-10-19T20:40:27;7.80;99.90
14934;DHT22;7560;51.364;12.384;2022-10-19T20:45:30;7.80;99.90
14934;DHT22;7560;51.364;12.384;2022-10-19T20:50:31;7.80;99.90
14934;DHT22;7560;51.364;12.384;2022-10-19T20:55:33;7.80;99.90
14934;DHT22;7560;51.364;12.384;2022-10-19T21:00:35;7.80;99.90
14934;DHT22;7560;51.364;12.384;2022-10-19T21:05:37;7.70;99.90
14934;DHT22;7560;51.364;12.384;2022-10-19T21:10:38;7.70;99.90
14934;DHT22;7560;51.364;12.384;2022-10-19T21:15:40;7.60;99.90
14934;DHT22;7560;51.364;12.384;2022-10-19T21:20:42;7.60;99.90
14934;DHT22;7560;51.364;12.384;2022-10-19T21:25:52;7.60;99.90
14934;DHT22;7560;51.364;12.384;2022-10-19T21:30:54;7.60;99.90
14934;DHT22;7560;51.364;12.384;2022-10-19T21:35:58;7.50;99.90
14934;DHT22;7560;51.364;12.384;2022-10-19T21:41:02;7.50;99.90
14934;DHT22;7560;51.364;12.384;2022-10-19T21:46:07;7.50;99.90
14934;DHT22;7560;51.364;12.384;2022-10-19T21:51:29;7.50;99.90
14934;DHT22;7560;51.364;12.384;2022-10-19T21:56:33;7.50;99.90
14934;DHT22;7560;51.364;12.384;2022-10-19T22:01:35;7.40;99.90
14934;DHT22;7560;51.364;12.384;2022-10-19T22:06:42;7.40;99.90
14934;DHT22;7560;51.364;12.384;2022-10-19T22:11:44;7.40;99.90
14934;DHT22;7560;51.364;12.384;2022-10-19T22:16:46;7.30;99.90
14934;DHT22;7560;51.364;12.384;2022-10-19T22:21:48;7.30;99.90
14934;DHT22;7560;51.364;12.384;2022-10-19T22:26:49;7.30;99.90
14934;DHT22;7560;51.364;12.384;2022-10-19T22:31:52;7.30;99.90
14934;DHT22;7560;51.364;12.384;2022-10-19T22:36:53;7.20;99.90
14934;DHT22;7560;51.364;12.384;2022-10-19T22:41:55;7.10;99.90
14934;DHT22;7560;51.364;12.384;2022-10-19T22:46:57;7.00;99.90
14934;DHT22;7560;51.364;12.384;2022-10-19T22:51:59;7.00;99.90
14934;DHT22;7560;51.364;12.384;2022-10-19T22:57:01;7.00;99.90
14934;DHT22;7560;51.364;12.384;2022-10-19T23:02:03;6.90;99.90
14934;DHT22;7560;51.364;12.384;2022-10-19T23:07:05;6.90;99.90
14934;DHT22;7560;51.364;12.384;2022-10-19T23:12:06;6.90;99.90
14934;DHT22;7560;51.364;12.384;2022-10-19T23:17:08;6.90;99.90
14934;DHT22;7560;51.364;12.384;2022-10-19T23:22:09;6.90;99.90
14934;DHT22;7560;51.364;12.384;2022-10-19T23:27:12;6.90;99.90
14934;DHT22;7560;51.364;12.384;2022-10-19T23:32:14;6.90;99.90
14934;DHT22;7560;51.364;12.384;2022-10-19T23:37:15;6.80;99.90
14934;DHT22;7560;51.364;12.384;2022-10-19T23:42:17;6.80;99.90
14934;DHT22;7560;51.364;12.384;2022-10-19T23:47:19;6.80;99.90
14934;DHT22;7560;51.364;12.384;2022-10-19T23:52:20;6.80;99.90
14934;DHT22;7560;51.364;12.384;2022-10-19T23:57:22;6.70;99.90
